createdAt,value
2022-07-27T00:00:42.091Z,25.69
2022-07-27T00:01:51.134Z,25.72
2022-07-27T00:02:41.923Z,25.68
2022-07-27T00:03:41.879Z,25.68
2022-07-27T00:04:41.957Z,25.68
2022-07-27T00:05:41.784Z,25.71
2022-07-27T00:06:41.740Z,25.71
2022-07-27T00:07:41.695Z,25.62
2022-07-27T00:08:41.647Z,25.67
2022-07-27T00:09:41.602Z,25.69
2022-07-27T00:10:41.555Z,25.67
2022-07-27T00:11:41.509Z,25.65
2022-07-27T00:12:41.465Z,25.69
2022-07-27T00:13:41.426Z,25.61
2022-07-27T00:14:41.375Z,25.62
2022-07-27T00:15:41.332Z,25.56
2022-07-27T00:16:41.347Z,25.59
2022-07-27T00:17:41.237Z,25.59
2022-07-27T00:18:41.191Z,25.57
2022-07-27T00:19:41.145Z,25.56
2022-07-27T00:20:41.101Z,25.56
2022-07-27T00:21:44.735Z,25.53
2022-07-27T00:22:41.009Z,25.61
2022-07-27T00:23:40.964Z,25.59
2022-07-27T00:24:40.915Z,25.62
2022-07-27T00:25:40.871Z,25.62
2022-07-27T00:26:40.829Z,25.57
2022-07-27T00:27:40.781Z,25.62
2022-07-27T00:28:40.737Z,25.62
2022-07-27T00:29:40.688Z,25.61
2022-07-27T00:30:40.659Z,25.54
2022-07-27T00:31:40.634Z,25.65
2022-07-27T00:32:40.549Z,25.64
2022-07-27T00:33:40.507Z,25.57
2022-07-27T00:34:40.460Z,25.53
2022-07-27T00:35:40.413Z,25.67
2022-07-27T00:36:40.369Z,25.67
2022-07-27T00:37:40.321Z,25.54
2022-07-27T00:38:40.279Z,25.52
2022-07-27T00:39:40.234Z,25.67
2022-07-27T00:40:40.186Z,25.67
2022-07-27T00:41:40.141Z,25.62
2022-07-27T00:42:40.092Z,25.65
2022-07-27T00:43:40.049Z,25.54
2022-07-27T00:44:40.002Z,25.53
2022-07-27T00:45:39.962Z,25.50
2022-07-27T00:46:39.963Z,25.52
2022-07-27T00:47:39.866Z,25.50
2022-07-27T00:48:39.855Z,25.54
2022-07-27T00:49:39.774Z,25.50
2022-07-27T00:50:39.728Z,25.62
2022-07-27T00:51:39.680Z,25.56
2022-07-27T00:52:39.633Z,25.47
2022-07-27T00:53:39.593Z,25.46
2022-07-27T00:54:39.545Z,25.50
2022-07-27T00:55:39.496Z,25.50
2022-07-27T00:56:39.454Z,25.59
2022-07-27T00:57:59.533Z,25.47
2022-07-27T00:58:39.359Z,25.52
2022-07-27T00:59:39.314Z,25.47
2022-07-27T01:00:39.268Z,25.47
2022-07-27T01:01:39.294Z,25.47
2022-07-27T01:02:39.313Z,25.47
2022-07-27T01:03:39.493Z,25.52
2022-07-27T01:04:39.509Z,25.50
2022-07-27T01:05:41.786Z,25.49
2022-07-27T01:06:38.999Z,25.49
2022-07-27T01:07:38.953Z,25.44
2022-07-27T01:08:38.902Z,25.46
2022-07-27T01:09:38.856Z,25.46
2022-07-27T01:10:38.808Z,25.49
2022-07-27T01:11:38.768Z,25.50
2022-07-27T01:12:38.723Z,25.46
2022-07-27T01:13:38.672Z,25.47
2022-07-27T01:14:38.628Z,25.47
2022-07-27T01:15:38.621Z,25.49
2022-07-27T01:16:38.611Z,25.50
2022-07-27T01:17:38.492Z,25.46
2022-07-27T01:18:38.441Z,25.43
2022-07-27T01:19:38.398Z,25.46
2022-07-27T01:20:38.351Z,25.42
2022-07-27T01:21:38.311Z,25.43
2022-07-27T01:22:38.264Z,25.43
2022-07-27T01:23:38.213Z,25.43
2022-07-27T01:24:38.168Z,25.43
2022-07-27T01:25:38.123Z,25.44
2022-07-27T01:26:38.075Z,25.42
2022-07-27T01:27:38.032Z,25.43
2022-07-27T01:28:37.982Z,25.32
2022-07-27T01:29:37.945Z,25.39
2022-07-27T01:30:37.895Z,25.42
2022-07-27T01:31:37.911Z,25.38
2022-07-27T01:32:37.801Z,25.43
2022-07-27T01:33:37.755Z,25.44
2022-07-27T01:34:37.709Z,25.32
2022-07-27T01:35:37.673Z,25.30
2022-07-27T01:36:37.617Z,25.34
2022-07-27T01:37:37.570Z,25.31
2022-07-27T01:38:37.525Z,25.35
2022-07-27T01:39:37.479Z,25.34
2022-07-27T01:40:37.439Z,25.34
2022-07-27T01:41:37.387Z,25.38
2022-07-27T01:42:37.346Z,25.35
2022-07-27T01:43:37.295Z,25.35
2022-07-27T01:44:37.250Z,25.30
2022-07-27T01:45:37.204Z,25.35
2022-07-27T01:46:37.252Z,25.30
2022-07-27T01:47:37.113Z,25.32
2022-07-27T01:48:37.119Z,25.31
2022-07-27T01:49:37.019Z,25.28
2022-07-27T01:50:36.976Z,25.19
2022-07-27T01:51:36.928Z,25.31
2022-07-27T01:52:36.879Z,25.24
2022-07-27T01:53:36.839Z,25.30
2022-07-27T01:54:36.789Z,25.27
2022-07-27T01:55:39.184Z,25.30
2022-07-27T01:56:36.697Z,25.28
2022-07-27T01:57:36.654Z,25.30
2022-07-27T01:58:36.606Z,25.28
2022-07-27T01:59:36.563Z,25.27
2022-07-27T02:00:36.513Z,25.31
2022-07-27T02:01:36.521Z,25.25
2022-07-27T02:02:36.422Z,25.24
2022-07-27T02:03:36.375Z,25.30
2022-07-27T02:04:36.331Z,25.19
2022-07-27T02:05:36.403Z,25.25
2022-07-27T02:06:36.238Z,25.17
2022-07-27T02:07:36.191Z,25.27
2022-07-27T02:08:36.145Z,25.19
2022-07-27T02:09:36.101Z,25.34
2022-07-27T02:10:36.053Z,25.22
2022-07-27T02:11:36.009Z,25.25
2022-07-27T02:12:35.961Z,25.17
2022-07-27T02:13:35.916Z,25.20
2022-07-27T02:14:35.870Z,25.20
2022-07-27T02:15:38.822Z,25.17
2022-07-27T02:16:35.819Z,25.22
2022-07-27T02:17:35.732Z,25.17
2022-07-27T02:18:37.010Z,25.22
2022-07-27T02:19:35.640Z,25.22
2022-07-27T02:20:35.592Z,25.22
2022-07-27T02:21:35.547Z,25.22
2022-07-27T02:22:35.507Z,25.16
2022-07-27T02:23:35.461Z,25.20
2022-07-27T02:24:35.409Z,25.19
2022-07-27T02:25:35.363Z,25.19
2022-07-27T02:26:35.326Z,25.17
2022-07-27T02:27:35.278Z,25.20
2022-07-27T02:28:35.227Z,25.19
2022-07-27T02:29:35.180Z,25.20
2022-07-27T02:30:35.132Z,25.16
2022-07-27T02:31:35.087Z,25.19
2022-07-27T02:32:35.098Z,25.12
2022-07-27T02:33:34.995Z,25.13
2022-07-27T02:34:34.948Z,25.16
2022-07-27T02:35:34.902Z,25.13
2022-07-27T02:36:34.858Z,25.15
2022-07-27T02:37:34.811Z,25.15
2022-07-27T02:38:34.765Z,25.12
2022-07-27T02:39:34.721Z,25.13
2022-07-27T02:40:34.674Z,25.12
2022-07-27T02:41:34.626Z,25.02
2022-07-27T02:42:34.579Z,25.15
2022-07-27T02:43:34.538Z,25.15
2022-07-27T02:44:34.972Z,25.00
2022-07-27T02:45:34.442Z,25.12
2022-07-27T02:46:34.472Z,25.10
2022-07-27T02:47:34.350Z,25.15
2022-07-27T02:48:34.336Z,25.10
2022-07-27T02:49:34.257Z,25.00
2022-07-27T02:50:34.210Z,25.10
2022-07-27T02:51:34.167Z,25.05
2022-07-27T02:52:34.118Z,25.02
2022-07-27T02:53:34.072Z,25.06
2022-07-27T02:54:34.025Z,25.10
2022-07-27T02:55:33.981Z,25.05
2022-07-27T02:56:33.940Z,25.06
2022-07-27T02:57:33.890Z,25.02
2022-07-27T02:58:33.847Z,25.07
2022-07-27T02:59:33.797Z,24.98
2022-07-27T03:00:33.748Z,25.02
2022-07-27T03:01:33.773Z,24.98
2022-07-27T03:02:33.658Z,24.95
2022-07-27T03:03:36.265Z,25.02
2022-07-27T03:04:33.611Z,25.00
2022-07-27T03:05:33.523Z,24.97
2022-07-27T03:06:33.474Z,25.01
2022-07-27T03:07:33.429Z,24.98
2022-07-27T03:08:33.377Z,25.00
2022-07-27T03:09:33.710Z,24.94
2022-07-27T03:10:33.287Z,24.92
2022-07-27T03:11:33.241Z,24.98
2022-07-27T03:12:33.194Z,24.98
2022-07-27T03:13:33.151Z,24.92
2022-07-27T03:14:33.108Z,25.00
2022-07-27T03:15:33.085Z,24.91
2022-07-27T03:16:33.011Z,24.92
2022-07-27T03:17:33.046Z,24.90
2022-07-27T03:18:32.916Z,24.87
2022-07-27T03:19:32.871Z,24.91
2022-07-27T03:20:32.829Z,24.90
2022-07-27T03:21:32.782Z,24.88
2022-07-27T03:22:32.732Z,24.91
2022-07-27T03:23:32.686Z,24.90
2022-07-27T03:24:32.639Z,24.91
2022-07-27T03:25:32.595Z,24.92
2022-07-27T03:26:32.553Z,24.88
2022-07-27T03:27:32.504Z,24.88
2022-07-27T03:28:32.455Z,24.88
2022-07-27T03:29:32.412Z,24.87
2022-07-27T03:30:32.459Z,24.90
2022-07-27T03:31:32.330Z,24.88
2022-07-27T03:32:32.272Z,24.85
2022-07-27T03:33:32.225Z,24.91
2022-07-27T03:34:32.184Z,24.85
2022-07-27T03:35:32.131Z,24.85
2022-07-27T03:36:32.086Z,24.88
2022-07-27T03:37:32.040Z,24.88
2022-07-27T03:38:31.993Z,24.77
2022-07-27T03:39:31.948Z,24.79
2022-07-27T03:40:31.903Z,24.92
2022-07-27T03:41:31.861Z,24.91
2022-07-27T03:42:31.807Z,24.87
2022-07-27T03:43:31.763Z,24.85
2022-07-27T03:44:31.719Z,24.80
2022-07-27T03:45:31.670Z,24.79
2022-07-27T03:46:31.650Z,24.82
2022-07-27T03:47:31.578Z,24.88
2022-07-27T03:48:31.587Z,24.76
2022-07-27T03:49:31.506Z,24.83
2022-07-27T03:50:31.440Z,24.83
2022-07-27T03:51:31.396Z,24.76
2022-07-27T03:52:31.368Z,24.80
2022-07-27T03:53:31.300Z,24.79
2022-07-27T03:54:31.256Z,24.77
2022-07-27T03:55:31.207Z,24.83
2022-07-27T03:56:31.158Z,24.68
2022-07-27T03:57:31.119Z,24.73
2022-07-27T03:58:31.067Z,24.76
2022-07-27T03:59:31.021Z,24.68
2022-07-27T04:00:30.974Z,24.79
2022-07-27T04:01:31.027Z,24.77
2022-07-27T04:02:30.943Z,24.75
2022-07-27T04:03:30.836Z,24.71
2022-07-27T04:04:30.787Z,24.76
2022-07-27T04:05:30.745Z,24.79
2022-07-27T04:06:30.702Z,24.77
2022-07-27T04:07:30.649Z,24.73
2022-07-27T04:08:30.636Z,24.76
2022-07-27T04:09:30.602Z,24.75
2022-07-27T04:10:31.754Z,24.68
2022-07-27T04:11:30.464Z,24.76
2022-07-27T04:12:30.420Z,24.82
2022-07-27T04:13:30.371Z,24.71
2022-07-27T04:14:30.325Z,24.63
2022-07-27T04:15:30.304Z,24.77
2022-07-27T04:16:35.609Z,24.69
2022-07-27T04:17:54.119Z,24.77
2022-07-27T04:18:30.141Z,24.76
2022-07-27T04:19:30.092Z,24.76
2022-07-27T04:20:30.047Z,24.73
2022-07-27T04:21:33.525Z,24.69
2022-07-27T04:22:29.953Z,24.71
2022-07-27T04:23:32.615Z,24.75
2022-07-27T04:24:29.860Z,24.69
2022-07-27T04:25:29.816Z,24.75
2022-07-27T04:26:29.779Z,24.75
2022-07-27T04:27:29.758Z,24.67
2022-07-27T04:28:29.673Z,24.61
2022-07-27T04:29:29.629Z,24.60
2022-07-27T04:30:29.669Z,24.63
2022-07-27T04:31:29.555Z,24.67
2022-07-27T04:32:29.489Z,24.63
2022-07-27T04:33:29.442Z,24.57
2022-07-27T04:34:29.398Z,24.57
2022-07-27T04:35:29.348Z,24.69
2022-07-27T04:36:29.305Z,24.69
2022-07-27T04:37:29.256Z,24.71
2022-07-27T04:38:29.212Z,24.61
2022-07-27T04:39:29.162Z,24.60
2022-07-27T04:40:29.120Z,24.64
2022-07-27T04:41:29.667Z,24.60
2022-07-27T04:42:29.026Z,24.67
2022-07-27T04:43:29.635Z,24.68
2022-07-27T04:44:28.933Z,24.61
2022-07-27T04:45:28.884Z,24.61
2022-07-27T04:46:28.969Z,24.67
2022-07-27T04:47:28.793Z,24.68
2022-07-27T04:48:28.749Z,24.63
2022-07-27T04:49:28.779Z,24.57
2022-07-27T04:50:28.655Z,24.59
2022-07-27T04:51:34.090Z,24.61
2022-07-27T04:52:28.921Z,24.59
2022-07-27T04:53:28.515Z,24.60
2022-07-27T04:54:28.469Z,24.67
2022-07-27T04:55:29.474Z,24.61
2022-07-27T04:56:28.376Z,24.56
2022-07-27T04:57:28.327Z,24.54
2022-07-27T04:58:28.286Z,24.56
2022-07-27T04:59:28.234Z,24.61
2022-07-27T05:00:28.187Z,24.64
2022-07-27T05:01:33.114Z,24.63
2022-07-27T05:02:28.096Z,24.49
2022-07-27T05:03:28.047Z,24.50
2022-07-27T05:04:28.054Z,24.60
2022-07-27T05:05:27.956Z,24.61
2022-07-27T05:06:27.910Z,24.69
2022-07-27T05:07:27.863Z,24.63
2022-07-27T05:08:27.816Z,24.54
2022-07-27T05:09:27.768Z,24.56
2022-07-27T05:10:27.724Z,24.53
2022-07-27T05:11:27.684Z,24.53
2022-07-27T05:12:27.631Z,24.64
2022-07-27T05:13:27.581Z,24.54
2022-07-27T05:14:27.538Z,24.67
2022-07-27T05:15:27.492Z,24.54
2022-07-27T05:16:29.070Z,24.53
2022-07-27T05:17:27.394Z,24.57
2022-07-27T05:18:27.354Z,24.52
2022-07-27T05:19:39.967Z,24.50
2022-07-27T05:20:27.258Z,24.53
2022-07-27T05:21:27.219Z,24.52
2022-07-27T05:22:27.164Z,24.53
2022-07-27T05:23:27.116Z,24.53
2022-07-27T05:24:27.071Z,24.50
2022-07-27T05:25:27.024Z,24.50
2022-07-27T05:26:26.977Z,24.50
2022-07-27T05:27:26.930Z,24.44
2022-07-27T05:28:26.885Z,24.45
2022-07-27T05:29:26.840Z,24.49
2022-07-27T05:30:26.794Z,24.57
2022-07-27T05:31:26.809Z,24.50
2022-07-27T05:32:26.698Z,24.49
2022-07-27T05:33:26.651Z,24.52
2022-07-27T05:34:26.607Z,24.56
2022-07-27T05:35:26.557Z,24.50
2022-07-27T05:36:26.511Z,24.39
2022-07-27T05:37:26.467Z,24.49
2022-07-27T05:38:26.419Z,24.52
2022-07-27T05:39:26.370Z,24.53
2022-07-27T05:40:26.338Z,24.53
2022-07-27T05:41:26.290Z,24.54
2022-07-27T05:42:26.235Z,24.52
2022-07-27T05:43:26.187Z,24.52
2022-07-27T05:44:26.138Z,24.45
2022-07-27T05:45:26.114Z,24.50
2022-07-27T05:46:29.647Z,24.53
2022-07-27T05:47:25.998Z,24.45
2022-07-27T05:48:25.952Z,24.45
2022-07-27T05:49:25.963Z,24.44
2022-07-27T05:50:25.861Z,24.49
2022-07-27T05:51:25.810Z,24.45
2022-07-27T05:52:25.766Z,24.49
2022-07-27T05:53:25.720Z,24.47
2022-07-27T05:54:25.673Z,24.45
2022-07-27T05:55:25.627Z,24.45
2022-07-27T05:56:25.580Z,24.44
2022-07-27T05:57:25.531Z,24.39
2022-07-27T05:58:25.488Z,24.47
2022-07-27T05:59:25.441Z,24.39
2022-07-27T06:00:25.402Z,24.44
2022-07-27T06:01:25.411Z,24.45
2022-07-27T06:02:25.301Z,24.42
2022-07-27T06:03:25.286Z,24.47
2022-07-27T06:04:25.206Z,24.44
2022-07-27T06:05:25.159Z,24.47
2022-07-27T06:06:25.113Z,24.35
2022-07-27T06:07:25.064Z,24.42
2022-07-27T06:08:25.022Z,24.41
2022-07-27T06:09:24.973Z,24.37
2022-07-27T06:10:24.927Z,24.38
2022-07-27T06:11:24.879Z,24.44
2022-07-27T06:12:29.892Z,24.38
2022-07-27T06:13:28.327Z,24.38
2022-07-27T06:14:24.741Z,24.39
2022-07-27T06:15:24.689Z,24.39
2022-07-27T06:16:24.676Z,24.38
2022-07-27T06:17:24.598Z,24.41
2022-07-27T06:18:24.552Z,24.42
2022-07-27T06:19:24.505Z,24.42
2022-07-27T06:20:24.460Z,24.42
2022-07-27T06:21:24.413Z,24.41
2022-07-27T06:22:24.369Z,24.35
2022-07-27T06:23:24.319Z,24.38
2022-07-27T06:24:24.273Z,24.42
2022-07-27T06:25:34.182Z,24.44
2022-07-27T06:26:24.180Z,24.41
2022-07-27T06:27:29.341Z,24.38
2022-07-27T06:28:24.088Z,24.39
2022-07-27T06:29:24.038Z,24.42
2022-07-27T06:30:23.999Z,24.41
2022-07-27T06:31:23.986Z,24.42
2022-07-27T06:32:23.907Z,24.35
2022-07-27T06:33:23.851Z,24.39
2022-07-27T06:34:23.808Z,24.37
2022-07-27T06:35:23.758Z,24.41
2022-07-27T06:36:23.712Z,24.37
2022-07-27T06:37:23.667Z,24.41
2022-07-27T06:38:23.622Z,24.39
2022-07-27T06:39:23.570Z,24.42
2022-07-27T06:40:27.328Z,24.42
2022-07-27T06:41:23.478Z,24.38
2022-07-27T06:42:23.432Z,24.39
2022-07-27T06:43:23.385Z,24.44
2022-07-27T06:44:23.342Z,24.37
2022-07-27T06:45:23.290Z,24.39
2022-07-27T06:46:23.253Z,24.39
2022-07-27T06:47:28.500Z,24.39
2022-07-27T06:48:23.152Z,24.38
2022-07-27T06:49:23.188Z,24.42
2022-07-27T06:50:23.058Z,24.39
2022-07-27T06:51:23.011Z,24.38
2022-07-27T06:52:23.021Z,24.44
2022-07-27T06:53:22.920Z,24.37
2022-07-27T06:54:22.877Z,24.39
2022-07-27T06:55:22.823Z,24.42
2022-07-27T06:56:22.779Z,24.38
2022-07-27T06:57:22.737Z,24.39
2022-07-27T06:58:22.685Z,24.34
2022-07-27T06:59:22.635Z,24.41
2022-07-27T07:00:22.592Z,24.38
2022-07-27T07:01:22.594Z,24.39
2022-07-27T07:02:22.500Z,24.37
2022-07-27T07:03:22.471Z,24.41
2022-07-27T07:04:23.948Z,24.41
2022-07-27T07:05:22.366Z,24.37
2022-07-27T07:06:22.311Z,24.39
2022-07-27T07:07:22.262Z,24.45
2022-07-27T07:08:22.219Z,24.38
2022-07-27T07:09:22.174Z,24.37
2022-07-27T07:10:23.996Z,24.44
2022-07-27T07:11:22.076Z,24.37
2022-07-27T07:12:22.031Z,24.41
2022-07-27T07:13:21.985Z,24.39
2022-07-27T07:14:21.938Z,24.35
2022-07-27T07:15:21.888Z,24.35
2022-07-27T07:16:21.893Z,24.39
2022-07-27T07:17:21.797Z,24.44
2022-07-27T07:18:21.749Z,24.38
2022-07-27T07:19:21.706Z,24.41
2022-07-27T07:20:21.658Z,24.42
2022-07-27T07:21:21.609Z,24.41
2022-07-27T07:22:21.563Z,24.38
2022-07-27T07:23:21.517Z,24.37
2022-07-27T07:24:21.469Z,24.41
2022-07-27T07:25:21.422Z,24.39
2022-07-27T07:26:21.377Z,24.38
2022-07-27T07:27:21.327Z,24.41
2022-07-27T07:28:21.282Z,24.32
2022-07-27T07:29:21.233Z,24.38
2022-07-27T07:30:21.188Z,24.37
2022-07-27T07:31:21.159Z,24.38
2022-07-27T07:32:21.096Z,24.39
2022-07-27T07:33:21.050Z,24.41
2022-07-27T07:34:21.005Z,24.42
2022-07-27T07:35:20.960Z,24.37
2022-07-27T07:36:20.911Z,24.42
2022-07-27T07:37:20.862Z,24.37
2022-07-27T07:38:20.816Z,24.37
2022-07-27T07:39:20.767Z,24.45
2022-07-27T07:41:20.676Z,24.35
2022-07-27T07:42:20.628Z,24.41
2022-07-27T07:43:20.582Z,24.42
2022-07-27T07:44:20.543Z,24.38
2022-07-27T07:45:20.496Z,24.35
2022-07-27T07:46:20.466Z,24.41
2022-07-27T07:47:20.392Z,24.41
2022-07-27T07:48:20.356Z,24.41
2022-07-27T07:49:37.777Z,24.41
2022-07-27T07:50:20.257Z,24.35
2022-07-27T07:51:20.206Z,24.37
2022-07-27T07:52:20.160Z,24.41
2022-07-27T07:53:20.113Z,24.35
2022-07-27T07:54:20.068Z,24.35
2022-07-27T07:55:20.021Z,24.38
2022-07-27T07:56:19.974Z,24.31
2022-07-27T07:57:19.927Z,24.29
2022-07-27T07:58:19.881Z,24.35
2022-07-27T07:59:19.831Z,24.35
2022-07-27T08:00:19.809Z,24.37
2022-07-27T08:01:19.789Z,24.32
2022-07-27T08:02:19.750Z,24.31
2022-07-27T08:03:19.891Z,24.38
2022-07-27T08:04:19.602Z,24.38
2022-07-27T08:05:19.552Z,24.35
2022-07-27T08:06:19.510Z,24.35
2022-07-27T08:07:19.456Z,24.41
2022-07-27T08:08:19.418Z,24.34
2022-07-27T08:09:19.370Z,24.41
2022-07-27T08:10:19.320Z,24.41
2022-07-27T08:11:19.276Z,24.39
2022-07-27T08:12:19.229Z,24.38
2022-07-27T08:13:22.305Z,24.35
2022-07-27T08:14:19.139Z,24.42
2022-07-27T08:15:19.084Z,24.38
2022-07-27T08:16:19.074Z,24.41
2022-07-27T08:17:18.989Z,24.41
2022-07-27T08:18:18.948Z,24.32
2022-07-27T08:19:18.900Z,24.35
2022-07-27T08:20:18.851Z,24.39
2022-07-27T08:21:18.804Z,24.45
2022-07-27T08:22:18.758Z,24.41
2022-07-27T08:23:18.750Z,24.35
2022-07-27T08:24:18.668Z,24.42
2022-07-27T08:25:18.637Z,24.38
2022-07-27T08:26:18.579Z,24.39
2022-07-27T08:27:18.526Z,24.41
2022-07-27T08:28:18.478Z,24.38
2022-07-27T08:29:18.756Z,24.37
2022-07-27T08:30:18.390Z,24.41
2022-07-27T08:31:24.585Z,24.37
2022-07-27T08:32:18.326Z,24.37
2022-07-27T08:33:18.243Z,24.42
2022-07-27T08:34:18.197Z,24.35
2022-07-27T08:35:18.149Z,24.37
2022-07-27T08:36:18.102Z,24.37
2022-07-27T08:37:18.054Z,24.41
2022-07-27T08:38:18.018Z,24.41
2022-07-27T08:39:52.492Z,24.35
2022-07-27T08:40:47.699Z,24.41
2022-07-27T08:41:17.867Z,24.32
2022-07-27T08:42:17.822Z,24.38
2022-07-27T08:43:24.305Z,24.38
2022-07-27T08:44:17.730Z,24.37
2022-07-27T08:45:17.683Z,24.39
2022-07-27T08:46:17.707Z,24.35
2022-07-27T08:47:17.589Z,24.38
2022-07-27T08:48:17.542Z,24.35
2022-07-27T08:49:18.101Z,24.38
2022-07-27T08:50:17.446Z,24.32
2022-07-27T08:51:17.400Z,24.38
2022-07-27T08:52:17.357Z,24.38
2022-07-27T08:53:17.311Z,24.35
2022-07-27T08:54:17.262Z,24.35
2022-07-27T08:55:17.214Z,24.39
2022-07-27T08:56:17.167Z,24.38
2022-07-27T08:57:17.120Z,24.37
2022-07-27T08:58:17.079Z,24.34
2022-07-27T08:59:17.026Z,24.35
2022-07-27T09:00:16.981Z,24.35
2022-07-27T09:01:17.055Z,24.34
2022-07-27T09:02:16.993Z,24.44
2022-07-27T09:03:20.207Z,24.45
2022-07-27T09:04:16.791Z,24.42
2022-07-27T09:05:16.747Z,24.42
2022-07-27T09:06:16.700Z,24.44
2022-07-27T09:07:16.656Z,24.35
2022-07-27T09:08:16.605Z,24.34
2022-07-27T09:09:16.817Z,24.37
2022-07-27T09:10:16.511Z,24.35
2022-07-27T09:11:16.463Z,24.38
2022-07-27T09:12:16.416Z,24.41
2022-07-27T09:13:16.372Z,24.47
2022-07-27T09:14:16.325Z,24.42
2022-07-27T09:15:16.277Z,24.41
2022-07-27T09:16:18.538Z,24.38
2022-07-27T09:17:47.544Z,24.35
2022-07-27T09:18:16.177Z,24.42
2022-07-27T09:19:16.297Z,24.42
2022-07-27T09:20:18.656Z,24.37
2022-07-27T09:21:16.000Z,24.42
2022-07-27T09:22:15.950Z,24.39
2022-07-27T09:23:15.904Z,24.41
2022-07-27T09:24:44.288Z,24.41
2022-07-27T09:25:15.811Z,24.34
2022-07-27T09:26:30.446Z,24.41
2022-07-27T09:27:15.715Z,24.42
2022-07-27T09:28:15.668Z,24.37
2022-07-27T09:29:15.927Z,24.37
2022-07-27T09:30:15.646Z,24.38
2022-07-27T09:31:15.598Z,24.42
2022-07-27T09:32:15.488Z,24.41
2022-07-27T09:33:15.437Z,24.38
2022-07-27T09:34:15.388Z,24.42
2022-07-27T09:35:15.346Z,24.42
2022-07-27T09:36:15.298Z,24.42
2022-07-27T09:37:15.250Z,24.42
2022-07-27T09:38:15.201Z,24.44
2022-07-27T09:39:15.626Z,24.44
2022-07-27T09:40:15.286Z,24.42
2022-07-27T09:41:15.063Z,24.38
2022-07-27T09:42:38.280Z,24.41
2022-07-27T09:44:32.273Z,24.41
2022-07-27T09:45:14.876Z,24.37
2022-07-27T09:46:14.878Z,24.35
2022-07-27T09:47:14.785Z,24.41
2022-07-27T09:48:14.739Z,24.41
2022-07-27T09:49:14.802Z,24.41
2022-07-27T09:50:14.695Z,24.41
2022-07-27T09:51:57.814Z,24.39
2022-07-27T09:52:14.547Z,24.47
2022-07-27T09:53:41.295Z,24.47
2022-07-27T09:54:14.737Z,24.45
2022-07-27T09:55:14.546Z,24.45
2022-07-27T09:56:14.361Z,24.45
2022-07-27T09:57:14.316Z,24.45
2022-07-27T09:58:15.756Z,24.45
2022-07-27T09:59:14.221Z,24.45
2022-07-27T10:00:14.321Z,24.53
2022-07-27T10:01:14.177Z,24.44
2022-07-27T10:02:14.164Z,24.42
2022-07-27T10:03:14.035Z,24.50
2022-07-27T10:04:14.288Z,24.50
2022-07-27T10:05:14.095Z,24.53
2022-07-27T10:06:13.898Z,24.45
2022-07-27T10:07:14.039Z,24.54
2022-07-27T10:08:13.803Z,24.52
2022-07-27T10:09:13.756Z,24.53
2022-07-27T10:10:13.843Z,24.49
2022-07-27T10:11:13.661Z,24.52
2022-07-27T10:12:13.613Z,24.47
2022-07-27T10:13:13.568Z,24.57
2022-07-27T10:14:13.954Z,24.47
2022-07-27T10:15:13.474Z,24.49
2022-07-27T10:16:13.514Z,24.47
2022-07-27T10:17:13.383Z,24.47
2022-07-27T10:18:13.334Z,24.52
2022-07-27T10:19:13.288Z,24.52
2022-07-27T10:20:13.285Z,24.54
2022-07-27T10:21:13.194Z,24.50
2022-07-27T10:22:13.148Z,24.52
2022-07-27T10:23:13.099Z,24.57
2022-07-27T10:24:13.429Z,24.50
2022-07-27T10:25:13.006Z,24.59
2022-07-27T10:26:12.963Z,24.60
2022-07-27T10:27:12.916Z,24.53
2022-07-27T10:28:12.870Z,24.63
2022-07-27T10:29:12.822Z,24.56
2022-07-27T10:30:12.842Z,24.67
2022-07-27T10:31:12.754Z,24.54
2022-07-27T10:32:12.679Z,24.59
2022-07-27T10:33:12.635Z,24.64
2022-07-27T10:34:13.016Z,24.53
2022-07-27T10:35:12.540Z,24.69
2022-07-27T10:36:16.676Z,24.73
2022-07-27T10:37:12.447Z,24.57
2022-07-27T10:38:12.403Z,24.60
2022-07-27T10:39:12.352Z,24.57
2022-07-27T10:40:12.375Z,24.63
2022-07-27T10:41:12.260Z,24.63
2022-07-27T10:42:12.212Z,24.60
2022-07-27T10:43:12.165Z,24.63
2022-07-27T10:44:12.604Z,24.57
2022-07-27T10:45:12.073Z,24.59
2022-07-27T10:46:12.084Z,24.67
2022-07-27T10:47:11.984Z,24.56
2022-07-27T10:48:11.933Z,24.63
2022-07-27T10:49:11.924Z,24.63
2022-07-27T10:50:11.841Z,24.63
2022-07-27T10:51:11.791Z,24.63
2022-07-27T10:52:11.745Z,24.63
2022-07-27T10:53:11.705Z,24.63
2022-07-27T10:54:12.434Z,24.59
2022-07-27T10:55:11.606Z,24.63
2022-07-27T10:56:11.559Z,24.59
2022-07-27T10:57:11.513Z,24.59
2022-07-27T10:58:11.470Z,24.59
2022-07-27T10:59:11.425Z,24.63
2022-07-27T11:00:16.311Z,24.75
2022-07-27T11:01:11.360Z,24.60
2022-07-27T11:02:11.279Z,24.63
2022-07-27T11:03:11.233Z,24.60
2022-07-27T11:04:11.553Z,24.71
2022-07-27T11:05:32.537Z,24.60
2022-07-27T11:06:31.970Z,24.57
2022-07-27T11:07:34.287Z,24.61
2022-07-27T11:08:36.243Z,24.68
2022-07-27T11:10:10.909Z,24.57
2022-07-27T11:11:10.861Z,24.60
2022-07-27T11:12:10.822Z,24.63
2022-07-27T11:13:10.768Z,24.59
2022-07-27T11:14:11.050Z,24.56
2022-07-27T11:15:10.674Z,24.63
2022-07-27T11:16:26.136Z,24.71
2022-07-27T11:17:49.509Z,24.69
2022-07-27T11:18:15.009Z,24.76
2022-07-27T11:19:10.990Z,24.69
2022-07-27T11:20:10.441Z,24.69
2022-07-27T11:21:10.394Z,24.64
2022-07-27T11:22:28.314Z,24.69
2022-07-27T11:24:10.722Z,24.76
2022-07-27T11:25:10.211Z,24.71
2022-07-27T11:26:10.161Z,24.76
2022-07-27T11:27:16.397Z,24.76
2022-07-27T11:28:10.066Z,24.71
2022-07-27T11:29:10.280Z,24.68
2022-07-27T11:30:09.972Z,24.68
2022-07-27T11:31:09.948Z,24.76
2022-07-27T11:32:09.881Z,24.73
2022-07-27T11:33:09.836Z,24.69
2022-07-27T11:34:10.205Z,24.68
2022-07-27T11:35:11.786Z,24.71
2022-07-27T11:36:09.693Z,24.73
2022-07-27T11:37:09.649Z,24.68
2022-07-27T11:38:09.602Z,24.68
2022-07-27T11:39:14.787Z,24.77
2022-07-27T11:40:37.496Z,24.73
2022-07-27T11:41:16.903Z,24.71
2022-07-27T11:42:12.376Z,24.73
2022-07-27T11:43:09.372Z,24.68
2022-07-27T11:44:09.556Z,24.75
2022-07-27T11:45:09.280Z,24.73
2022-07-27T11:46:09.287Z,24.63
2022-07-27T11:47:09.183Z,24.75
2022-07-27T11:48:09.136Z,24.73
2022-07-27T11:49:09.737Z,24.76
2022-07-27T11:50:09.215Z,24.63
2022-07-27T11:51:08.998Z,24.77
2022-07-27T11:52:08.951Z,24.79
2022-07-27T11:53:08.905Z,24.69
2022-07-27T11:54:08.863Z,24.69
2022-07-27T11:55:08.813Z,24.79
2022-07-27T11:56:08.762Z,24.83
2022-07-27T11:57:08.717Z,24.80
2022-07-27T11:58:08.670Z,24.76
2022-07-27T11:59:08.623Z,24.76
2022-07-27T12:00:08.580Z,24.79
2022-07-27T12:01:08.531Z,24.73
2022-07-27T12:02:08.508Z,24.82
2022-07-27T12:03:08.440Z,24.83
2022-07-27T12:04:08.393Z,24.82
2022-07-27T12:05:08.371Z,24.82
2022-07-27T12:06:08.298Z,24.76
2022-07-27T12:07:08.253Z,24.75
2022-07-27T12:08:08.206Z,24.79
2022-07-27T12:09:08.165Z,24.83
2022-07-27T12:10:08.112Z,24.88
2022-07-27T12:11:08.067Z,24.79
2022-07-27T12:12:08.018Z,24.80
2022-07-27T12:13:07.972Z,24.83
2022-07-27T12:14:07.930Z,24.83
2022-07-27T12:15:28.100Z,24.77
2022-07-27T12:16:07.832Z,24.82
2022-07-27T12:17:07.892Z,24.80
2022-07-27T12:18:07.739Z,24.76
2022-07-27T12:19:07.694Z,24.80
2022-07-27T12:20:07.646Z,24.77
2022-07-27T12:21:07.600Z,24.88
2022-07-27T12:22:07.553Z,24.82
2022-07-27T12:23:07.716Z,24.82
2022-07-27T12:24:07.458Z,24.77
2022-07-27T12:25:15.999Z,24.87
2022-07-27T12:26:07.366Z,24.92
2022-07-27T12:27:07.324Z,24.83
2022-07-27T12:28:07.274Z,24.88
2022-07-27T12:29:07.230Z,24.85
2022-07-27T12:30:07.183Z,24.80
2022-07-27T12:31:07.190Z,24.77
2022-07-27T12:32:07.087Z,24.87
2022-07-27T12:33:07.045Z,24.80
2022-07-27T12:34:06.995Z,24.80
2022-07-27T12:35:06.950Z,24.85
2022-07-27T12:36:06.901Z,24.80
2022-07-27T12:37:06.858Z,24.94
2022-07-27T12:38:06.810Z,24.82
2022-07-27T12:39:06.765Z,24.91
2022-07-27T12:40:06.720Z,24.90
2022-07-27T12:41:06.671Z,24.77
2022-07-27T12:42:06.623Z,24.92
2022-07-27T12:43:06.578Z,24.83
2022-07-27T12:44:06.529Z,24.91
2022-07-27T12:45:06.485Z,24.88
2022-07-27T12:46:06.509Z,24.83
2022-07-27T12:47:06.391Z,24.87
2022-07-27T12:48:06.344Z,24.88
2022-07-27T12:49:06.340Z,24.90
2022-07-27T12:50:06.251Z,24.90
2022-07-27T12:51:06.226Z,24.91
2022-07-27T12:52:06.158Z,24.87
2022-07-27T12:53:06.114Z,24.91
2022-07-27T12:54:06.064Z,24.87
2022-07-27T12:55:06.023Z,24.87
2022-07-27T12:56:05.975Z,24.79